logo tempoitalia

Diretta Meteo Ajaccio, Francialunedì 31 agosto ore 07:00

Mappa
Sereno 20 °C Sereno 24 Ore: T.min 20 T.max 31
Ponente Nord-Est Km/h 11.1 Punto di rugiada: 16 °C Umidità: 77% Visibilità: 10 Km
Il sole sorge alle: 06:49 Il sole tramonta alle: 20:00
31 Agosto 2026 07:00 tempo osservato: Sereno Sereno 20 77 1016 vento: Nord NE 11.1
31 Agosto 2026 06:30 tempo osservato: Sereno Sereno 20 77 1016 vento: Nord NE 13
31 Agosto 2026 06:00 tempo osservato: Sereno Sereno 20 77 1016 vento: Nord NE 9.3
31 Agosto 2026 05:30 tempo osservato: Sereno Sereno 20 82 1016 vento: Nord E/NE 9.3
31 Agosto 2026 05:00 tempo osservato: Sereno Sereno 20 82 1016 vento: Nord NE 9.3
31 Agosto 2026 04:30 tempo osservato: Sereno Sereno 20 82 1016 vento: Nord NE 9.3
31 Agosto 2026 04:00 tempo osservato: Sereno Sereno 20 88 1016 vento: Nord NE 7.4
31 Agosto 2026 03:30 tempo osservato: Sereno Sereno 21 82 1016 vento: Nord E/NE 7.4
31 Agosto 2026 03:00 tempo osservato: Sereno Sereno 22 78 1016 vento: Nord NE 7.4
31 Agosto 2026 02:30 tempo osservato: Sereno Sereno 22 78 1016 vento: Nord NE 9.3
31 Agosto 2026 02:00 tempo osservato: Sereno Sereno 22 83 1016 vento: Nord NE 7.4
31 Agosto 2026 01:30 tempo osservato: Sereno Sereno 22 83 1017 vento: Nord NE 9.3
31 Agosto 2026 01:00 tempo osservato: Sereno Sereno 22 83 1017 vento: Nord NE 9.3
31 Agosto 2026 00:30 tempo osservato: Sereno Sereno 23 83 1016 vento: Nord NE 7.4
31 Agosto 2026 00:00 tempo osservato: Sereno Sereno 23 83 1016 vento: Nord NE 7.4
30 Agosto 2026 23:30 tempo osservato: Sereno Sereno 23 83 1016 vento: Nord E/NE 9.3
30 Agosto 2026 23:00 tempo osservato: Sereno Sereno 24 78 1016 vento: Nord NE 7.4
30 Agosto 2026 22:30 tempo osservato: Sereno Sereno 25 78 1016 vento: Nord N 5.5
30 Agosto 2026 22:00 tempo osservato: Sereno Sereno 25 78 1016 vento: Nord N 5.5
30 Agosto 2026 21:30 tempo osservato: Sereno Sereno 25 78 1016 vento: Nord E 9.3
30 Agosto 2026 21:00 tempo osservato: Sereno Sereno 26 73 1015 vento: Nord N 5.5
30 Agosto 2026 20:30 tempo osservato: Sereno Sereno 27 69 1015 vento: Nord S/SO 7.4
30 Agosto 2026 20:00 tempo osservato: Sereno Sereno 27 69 1015 vento: Nord S/SO 11.1
30 Agosto 2026 19:30 tempo osservato: Sereno Sereno 28 69 1015 vento: Nord SO 16.7
30 Agosto 2026 19:00 tempo osservato: Sereno Sereno 29 66 1015 vento: Nord S/SO 16.7
30 Agosto 2026 18:30 tempo osservato: Sereno Sereno 29 62 1015 vento: Nord SO 18.5
30 Agosto 2026 18:00 tempo osservato: Sereno Sereno 30 58 1015 vento: Nord SO 20.3
30 Agosto 2026 17:30 tempo osservato: Sereno Sereno 30 62 1015 vento: Nord S/SO 20.3
30 Agosto 2026 17:00 tempo osservato: Sereno Sereno 30 62 1015 vento: Nord S/SO 24
30 Agosto 2026 16:30 tempo osservato: Sereno Sereno 30 62 1015 vento: Nord S/SO 25.9
30 Agosto 2026 16:00 tempo osservato: Sereno Sereno 30 62 1015 vento: Nord SO 24
30 Agosto 2026 15:30 tempo osservato: Sereno Sereno 31 62 1015 vento: Nord SO 24
30 Agosto 2026 15:00 tempo osservato: Sereno Sereno 31 58 1015 vento: Nord S/SO 24
30 Agosto 2026 14:30 tempo osservato: Sereno Sereno 30 62 1015 vento: Nord SO 25.9
30 Agosto 2026 14:00 tempo osservato: Sereno Sereno 30 62 1015 vento: Nord SO 27.8
30 Agosto 2026 13:30 tempo osservato: Sereno Sereno 29 62 1015 vento: Nord O/SO 25.9
30 Agosto 2026 13:00 tempo osservato: Sereno Sereno 29 62 1016 vento: Nord O/SO 25.9
30 Agosto 2026 12:30 tempo osservato: Sereno Sereno 30 58 1016 vento: Nord SO 22.2
30 Agosto 2026 12:00 tempo osservato: Sereno Sereno 29 58 1016 vento: Nord O/SO 16.7
30 Agosto 2026 11:30 tempo osservato: Sereno Sereno 29 58 1016 vento: Nord SO 18.5
30 Agosto 2026 11:00 tempo osservato: Sereno Sereno 29 48 1016 vento: Nord O/SO 16.7
30 Agosto 2026 10:30 tempo osservato: Sereno Sereno 28 51 1016 vento: Nord O/SO 11.1
30 Agosto 2026 10:00 tempo osservato: Sereno Sereno 29 42 1015 vento: Nord N 1.8
30 Agosto 2026 09:30 tempo osservato: Sereno Sereno 27 44 1015 vento: Nord N 5.5
30 Agosto 2026 09:00 tempo osservato: Sereno Sereno 25 53 1015 vento: Nord N 5.5
30 Agosto 2026 08:30 tempo osservato: Sereno Sereno 23 60 1016 vento: Nord NE 7.4
30 Agosto 2026 08:00 tempo osservato: Sereno Sereno 21 68 1015 vento: Nord N/NE 11.1